createdAt,value
2022-11-15T00:00:52.264Z,6.30
2022-11-15T00:02:25.142Z,6.30
2022-11-15T00:03:58.043Z,6.30
2022-11-15T00:05:29.808Z,6.20
2022-11-15T00:07:02.562Z,6.20
2022-11-15T00:08:36.820Z,6.20
2022-11-15T00:10:09.767Z,6.20
2022-11-15T00:11:42.514Z,6.20
2022-11-15T00:13:14.228Z,6.20
2022-11-15T00:14:46.986Z,6.20
2022-11-15T00:16:19.713Z,6.20
2022-11-15T00:17:52.558Z,6.20
2022-11-15T00:19:25.426Z,6.20
2022-11-15T00:20:58.478Z,6.20
2022-11-15T00:22:32.204Z,6.20
2022-11-15T00:24:06.487Z,6.20
2022-11-15T00:25:39.614Z,6.20
2022-11-15T00:27:12.498Z,6.20
2022-11-15T00:28:45.249Z,6.20
2022-11-15T00:30:17.165Z,6.20
2022-11-15T00:31:50.099Z,6.20
2022-11-15T00:33:23.299Z,6.30
2022-11-15T00:34:56.070Z,6.30
2022-11-15T00:36:28.795Z,6.20
2022-11-15T00:38:01.560Z,6.30
2022-11-15T00:39:35.599Z,6.20
2022-11-15T00:41:10.067Z,6.30
2022-11-15T00:42:43.240Z,6.30
2022-11-15T00:44:15.978Z,6.20
2022-11-15T00:45:48.835Z,6.20
2022-11-15T00:47:21.717Z,6.20
2022-11-15T00:48:53.486Z,6.20
2022-11-15T00:50:26.308Z,6.20
2022-11-15T00:51:59.050Z,6.10
2022-11-15T00:53:32.137Z,6.10
2022-11-15T00:55:06.951Z,6.10
2022-11-15T00:56:39.657Z,6.00
2022-11-15T00:58:11.500Z,6.00
2022-11-15T00:59:44.270Z,6.00
2022-11-15T01:01:17.063Z,6.00
2022-11-15T01:02:49.901Z,6.40
2022-11-15T01:04:22.747Z,5.90
2022-11-15T01:05:55.489Z,5.90
2022-11-15T01:07:27.270Z,5.90
2022-11-15T01:08:59.988Z,5.90
2022-11-15T01:10:34.019Z,5.90
2022-11-15T01:12:07.086Z,5.90
2022-11-15T01:13:41.018Z,5.90
2022-11-15T01:15:12.784Z,5.80
2022-11-15T01:16:45.596Z,5.80
2022-11-15T01:18:18.340Z,5.80
2022-11-15T01:19:51.012Z,5.70
2022-11-15T01:21:23.817Z,5.70
2022-11-15T01:22:55.539Z,5.60
2022-11-15T01:24:28.232Z,5.70
2022-11-15T01:26:02.560Z,5.60
2022-11-15T01:27:35.272Z,5.50
2022-11-15T01:29:07.962Z,5.50
2022-11-15T01:30:40.722Z,5.50
2022-11-15T01:32:13.783Z,5.40
2022-11-15T01:33:46.479Z,5.40
2022-11-15T01:35:19.201Z,5.40
2022-11-15T01:36:51.001Z,5.30
2022-11-15T01:38:23.760Z,5.40
2022-11-15T01:39:56.481Z,5.30
2022-11-15T01:41:31.673Z,5.30
2022-11-15T01:43:19.355Z,5.30
2022-11-15T01:44:52.664Z,5.30
2022-11-15T01:46:27.449Z,5.30
2022-11-15T01:48:00.188Z,5.30
2022-11-15T01:49:34.631Z,5.30
2022-11-15T01:51:08.827Z,5.30
2022-11-15T01:52:41.792Z,5.30
2022-11-15T01:54:16.308Z,5.30
2022-11-15T01:55:49.181Z,5.20
2022-11-15T01:57:22.483Z,5.20
2022-11-15T01:58:57.437Z,5.20
2022-11-15T02:00:31.123Z,5.20
2022-11-15T02:02:03.951Z,5.30
2022-11-15T02:03:40.116Z,5.30
2022-11-15T02:05:13.100Z,5.40
2022-11-15T02:06:46.196Z,5.50
2022-11-15T02:08:21.710Z,5.50
2022-11-15T02:09:54.516Z,5.50
2022-11-15T02:11:26.347Z,5.50
2022-11-15T02:13:01.996Z,5.50
2022-11-15T02:14:34.355Z,5.50
2022-11-15T02:16:13.398Z,5.60
2022-11-15T02:18:00.252Z,5.60
2022-11-15T02:19:42.043Z,5.60
2022-11-15T02:21:19.121Z,5.70
2022-11-15T02:22:58.587Z,5.70
2022-11-15T02:24:46.940Z,5.80
2022-11-15T02:26:34.154Z,5.80
2022-11-15T02:28:30.225Z,5.90
2022-11-15T02:30:07.952Z,5.90
2022-11-15T02:31:46.440Z,5.90
2022-11-15T02:33:27.631Z,5.90
2022-11-15T02:35:03.580Z,6.00
2022-11-15T02:36:40.397Z,5.90
2022-11-15T02:38:18.767Z,5.90
2022-11-15T02:39:53.790Z,5.90
2022-11-15T02:41:29.840Z,5.80
2022-11-15T02:43:24.089Z,5.80
2022-11-15T02:44:57.475Z,5.80
2022-11-15T02:46:51.175Z,5.70
2022-11-15T02:48:26.061Z,5.70
2022-11-15T02:49:59.558Z,5.70
2022-11-15T02:51:32.394Z,5.60
2022-11-15T02:53:05.810Z,5.60
2022-11-15T02:54:38.733Z,5.60
2022-11-15T02:56:12.300Z,5.60
2022-11-15T02:57:47.293Z,5.60
2022-11-15T02:59:32.134Z,5.50
2022-11-15T03:01:11.657Z,5.50
2022-11-15T03:02:45.536Z,5.50
2022-11-15T03:04:25.395Z,5.50
2022-11-15T03:06:03.031Z,5.40
2022-11-15T03:07:39.139Z,5.40
2022-11-15T03:09:16.698Z,5.40
2022-11-15T03:10:52.963Z,5.30
2022-11-15T03:12:27.624Z,5.30
2022-11-15T03:14:02.660Z,5.20
2022-11-15T03:15:39.078Z,5.20
2022-11-15T03:17:16.999Z,5.20
2022-11-15T03:18:51.979Z,5.10
2022-11-15T03:20:27.055Z,5.10
2022-11-15T03:22:01.947Z,5.00
2022-11-15T03:23:35.636Z,5.00
2022-11-15T03:25:10.512Z,4.90
2022-11-15T03:26:44.691Z,5.00
2022-11-15T03:28:19.440Z,5.00
2022-11-15T03:29:53.521Z,5.00
2022-11-15T03:31:50.068Z,4.90
2022-11-15T03:33:24.009Z,4.90
2022-11-15T03:34:59.495Z,4.90
2022-11-15T03:36:34.997Z,4.90
2022-11-15T03:38:10.962Z,4.90
2022-11-15T03:39:44.567Z,4.80
2022-11-15T03:41:19.246Z,4.90
2022-11-15T03:42:56.162Z,4.90
2022-11-15T03:44:36.278Z,4.80
2022-11-15T03:46:11.618Z,4.80
2022-11-15T03:47:47.835Z,4.80
2022-11-15T03:49:24.476Z,4.90
2022-11-15T03:50:57.579Z,4.80
2022-11-15T03:52:33.701Z,4.80
2022-11-15T03:54:06.548Z,4.80
2022-11-15T03:55:39.263Z,4.90
2022-11-15T03:57:12.028Z,4.80
2022-11-15T03:58:44.734Z,4.80
2022-11-15T04:00:17.923Z,4.90
2022-11-15T04:01:50.646Z,4.90
2022-11-15T04:03:23.837Z,4.90
2022-11-15T04:04:56.636Z,4.90
2022-11-15T04:06:29.650Z,4.90
2022-11-15T04:08:03.779Z,4.90
2022-11-15T04:09:56.872Z,4.90
2022-11-15T04:11:29.632Z,4.90
2022-11-15T04:13:04.431Z,4.90
2022-11-15T04:14:36.197Z,4.90
2022-11-15T04:16:08.906Z,4.90
2022-11-15T04:17:41.482Z,4.90
2022-11-15T04:19:31.405Z,4.80
2022-11-15T04:21:21.432Z,4.80
2022-11-15T04:23:12.172Z,4.80
2022-11-15T04:24:46.266Z,4.80
2022-11-15T04:26:20.285Z,4.80
2022-11-15T04:27:52.969Z,4.70
2022-11-15T04:29:36.920Z,4.70
2022-11-15T04:31:09.686Z,4.70
2022-11-15T04:32:42.378Z,4.70
2022-11-15T04:34:15.152Z,4.70
2022-11-15T04:36:07.895Z,4.70
2022-11-15T04:37:39.624Z,4.70
2022-11-15T04:39:12.403Z,4.70
2022-11-15T04:40:46.455Z,4.70
2022-11-15T04:42:19.259Z,4.70
2022-11-15T04:43:51.997Z,4.70
2022-11-15T04:45:24.955Z,4.70
2022-11-15T04:46:57.407Z,4.70
2022-11-15T04:48:30.090Z,4.70
2022-11-15T04:50:02.858Z,4.70
2022-11-15T04:51:35.712Z,4.70
2022-11-15T04:53:08.456Z,4.80
2022-11-15T04:54:40.244Z,4.80
2022-11-15T04:56:14.413Z,4.80
2022-11-15T04:57:47.105Z,4.80
2022-11-15T04:59:18.898Z,4.70
2022-11-15T05:00:51.682Z,4.80
2022-11-15T05:02:24.549Z,4.70
2022-11-15T05:04:15.188Z,4.70
2022-11-15T05:05:46.978Z,4.60
2022-11-15T05:07:19.809Z,4.60
2022-11-15T05:08:51.698Z,4.60
2022-11-15T05:10:24.528Z,4.60
2022-11-15T05:11:58.759Z,4.60
2022-11-15T05:13:30.960Z,4.60
2022-11-15T05:15:04.046Z,4.60
2022-11-15T05:16:36.924Z,4.70
2022-11-15T05:18:09.756Z,4.70
2022-11-15T05:19:41.540Z,4.70
2022-11-15T05:21:15.700Z,4.80
2022-11-15T05:22:48.434Z,4.70
2022-11-15T05:24:21.247Z,4.80
2022-11-15T05:25:54.056Z,4.70
2022-11-15T05:27:28.210Z,4.70
2022-11-15T05:29:01.135Z,4.80
2022-11-15T05:30:33.957Z,4.80
2022-11-15T05:32:07.567Z,4.90
2022-11-15T05:33:40.795Z,4.90
2022-11-15T05:35:15.140Z,4.90
2022-11-15T05:36:48.138Z,4.90
2022-11-15T05:38:21.359Z,4.90
2022-11-15T05:39:54.123Z,4.90
2022-11-15T05:41:29.087Z,4.90
2022-11-15T05:43:04.212Z,4.90
2022-11-15T05:44:38.267Z,4.80
2022-11-15T05:46:11.400Z,4.90
2022-11-15T05:47:44.622Z,4.90
2022-11-15T05:49:18.723Z,4.90
2022-11-15T05:50:51.656Z,4.90
2022-11-15T05:52:26.831Z,4.90
2022-11-15T05:53:59.261Z,4.90
2022-11-15T05:55:32.482Z,4.90
2022-11-15T05:57:05.871Z,4.90
2022-11-15T05:58:40.223Z,5.00
2022-11-15T06:00:13.673Z,5.00
2022-11-15T06:01:46.636Z,4.90
2022-11-15T06:03:19.544Z,4.90
2022-11-15T06:04:52.352Z,4.90
2022-11-15T06:06:25.126Z,4.90
2022-11-15T06:07:59.191Z,4.90
2022-11-15T06:09:32.166Z,4.90
2022-11-15T06:11:05.580Z,4.90
2022-11-15T06:12:38.362Z,5.00
2022-11-15T06:14:12.438Z,5.00
2022-11-15T06:15:45.214Z,5.00
2022-11-15T06:17:17.902Z,5.10
2022-11-15T06:18:50.730Z,5.10
2022-11-15T06:20:23.451Z,5.10
2022-11-15T06:21:56.130Z,5.20
2022-11-15T06:23:27.921Z,5.20
2022-11-15T06:25:05.237Z,5.20
2022-11-15T06:26:38.479Z,5.20
2022-11-15T06:28:11.207Z,5.20
2022-11-15T06:29:45.277Z,5.20
2022-11-15T06:31:18.084Z,5.30
2022-11-15T06:32:51.144Z,5.30
2022-11-15T06:34:23.845Z,5.30
2022-11-15T06:35:56.533Z,5.40
2022-11-15T06:37:29.226Z,5.30
2022-11-15T06:39:01.987Z,5.30
2022-11-15T06:40:34.598Z,5.30
2022-11-15T06:42:07.378Z,5.20
2022-11-15T06:43:40.207Z,5.20
2022-11-15T06:45:14.210Z,5.30
2022-11-15T06:46:46.915Z,5.30
2022-11-15T06:48:19.834Z,5.30
2022-11-15T06:49:52.528Z,5.30
2022-11-15T06:51:25.294Z,5.30
2022-11-15T06:53:03.290Z,5.40
2022-11-15T06:54:35.979Z,5.40
2022-11-15T06:56:09.983Z,5.40
2022-11-15T06:57:48.597Z,5.40
2022-11-15T06:59:21.441Z,5.50
2022-11-15T07:00:56.233Z,5.50
2022-11-15T07:02:28.963Z,5.50
2022-11-15T07:04:02.072Z,5.50
2022-11-15T07:05:34.353Z,5.50
2022-11-15T07:07:07.215Z,5.60
2022-11-15T07:08:40.050Z,5.60
2022-11-15T07:10:12.785Z,5.60
2022-11-15T07:11:45.583Z,5.60
2022-11-15T07:13:18.292Z,5.70
2022-11-15T07:14:50.996Z,5.80
2022-11-15T07:16:25.105Z,5.80
2022-11-15T07:17:57.819Z,5.80
2022-11-15T07:19:30.480Z,5.90
2022-11-15T07:21:04.117Z,5.90
2022-11-15T07:22:36.906Z,5.90
2022-11-15T07:24:09.639Z,6.00
2022-11-15T07:25:42.311Z,6.10
2022-11-15T07:27:15.079Z,6.20
2022-11-15T07:28:48.155Z,6.20
2022-11-15T07:30:20.923Z,6.40
2022-11-15T07:31:55.365Z,6.50
2022-11-15T07:33:28.066Z,6.60
2022-11-15T07:35:00.792Z,6.70
2022-11-15T07:36:33.554Z,6.80
2022-11-15T07:38:06.319Z,6.80
2022-11-15T07:39:39.115Z,6.90
2022-11-15T07:41:11.853Z,6.90
2022-11-15T07:42:56.369Z,7.00
2022-11-15T07:44:29.132Z,7.00
2022-11-15T07:46:05.833Z,7.00
2022-11-15T07:47:39.910Z,7.10
2022-11-15T07:49:12.609Z,7.10
2022-11-15T07:50:45.296Z,7.20
2022-11-15T07:52:18.040Z,7.20
2022-11-15T07:53:50.800Z,7.20
2022-11-15T07:55:23.587Z,7.10
2022-11-15T07:56:56.298Z,7.10
2022-11-15T07:58:29.028Z,7.20
2022-11-15T08:00:01.789Z,7.10
2022-11-15T08:01:34.520Z,7.10
2022-11-15T08:03:09.429Z,7.10
2022-11-15T08:04:42.179Z,7.10
2022-11-15T08:06:14.853Z,7.10
2022-11-15T08:07:47.556Z,7.20
2022-11-15T08:09:20.272Z,7.30
2022-11-15T08:10:53.012Z,7.30
2022-11-15T08:12:25.756Z,7.40
2022-11-15T08:13:58.595Z,7.40
2022-11-15T08:15:31.740Z,7.40
2022-11-15T08:17:04.487Z,7.50
2022-11-15T08:18:38.513Z,7.50
2022-11-15T08:20:11.852Z,7.60
2022-11-15T08:21:44.610Z,7.70
2022-11-15T08:23:17.309Z,7.70
2022-11-15T08:24:49.996Z,7.80
2022-11-15T08:26:22.770Z,7.90
2022-11-15T08:27:58.146Z,7.90
2022-11-15T08:29:30.832Z,8.00
2022-11-15T08:31:04.194Z,8.10
2022-11-15T08:32:37.055Z,8.10
2022-11-15T08:34:11.115Z,8.10
2022-11-15T08:35:44.422Z,8.20
2022-11-15T08:37:17.155Z,8.20
2022-11-15T08:38:49.885Z,8.30
2022-11-15T08:40:24.146Z,8.30
2022-11-15T08:41:56.936Z,8.30
2022-11-15T08:43:30.223Z,8.40
2022-11-15T08:45:03.079Z,8.40
2022-11-15T08:46:35.765Z,8.50
2022-11-15T08:48:08.608Z,8.50
2022-11-15T08:49:42.672Z,8.60
2022-11-15T08:51:15.346Z,8.60
2022-11-15T08:52:49.073Z,8.70
2022-11-15T08:54:21.836Z,8.70
2022-11-15T08:55:54.564Z,8.80
2022-11-15T08:57:30.205Z,8.80
2022-11-15T08:59:02.911Z,8.90
2022-11-15T09:00:34.749Z,8.90
2022-11-15T09:02:07.542Z,9.00
2022-11-15T09:03:41.636Z,9.00
2022-11-15T09:05:16.415Z,9.00
2022-11-15T09:06:49.116Z,9.10
2022-11-15T09:10:14.486Z,9.20
2022-11-15T09:11:47.757Z,9.30
2022-11-15T09:13:20.476Z,9.40
2022-11-15T09:14:53.189Z,9.40
2022-11-15T09:16:25.935Z,9.50
2022-11-15T09:17:59.955Z,9.50
2022-11-15T09:19:32.699Z,9.60
2022-11-15T09:21:06.826Z,9.70
2022-11-15T09:22:40.502Z,9.70
2022-11-15T09:24:13.322Z,9.80
2022-11-15T09:25:46.004Z,9.80
2022-11-15T09:27:18.694Z,9.90
2022-11-15T09:28:51.435Z,9.90
2022-11-15T09:30:24.222Z,9.90
2022-11-15T09:31:56.953Z,10.00
2022-11-15T09:33:30.140Z,10.10
2022-11-15T09:35:03.970Z,10.10
2022-11-15T09:36:38.032Z,10.10
2022-11-15T09:38:10.827Z,10.10
2022-11-15T09:39:43.495Z,10.20
2022-11-15T09:41:27.642Z,10.20
2022-11-15T09:43:06.769Z,10.20
2022-11-15T09:45:03.547Z,10.30
2022-11-15T09:46:40.030Z,10.30
2022-11-15T09:48:28.234Z,10.40
2022-11-15T09:50:02.327Z,10.40
2022-11-15T09:51:48.210Z,10.50
2022-11-15T09:53:47.930Z,10.50
2022-11-15T09:55:22.378Z,10.60
2022-11-15T09:56:57.616Z,10.60
2022-11-15T09:58:35.184Z,10.70
2022-11-15T10:00:43.933Z,10.70
2022-11-15T10:02:10.596Z,10.80
2022-11-15T10:03:43.595Z,10.80
2022-11-15T10:05:18.108Z,10.80
2022-11-15T10:06:56.393Z,10.90
2022-11-15T10:08:46.828Z,10.90
2022-11-15T10:10:24.846Z,10.90
2022-11-15T10:11:58.007Z,11.00
2022-11-15T10:13:33.563Z,11.00
2022-11-15T10:15:08.425Z,11.00
2022-11-15T10:17:00.107Z,11.10
2022-11-15T10:18:37.025Z,11.10
2022-11-15T10:20:14.762Z,11.20
2022-11-15T10:21:54.400Z,11.20
2022-11-15T10:23:29.193Z,11.30
2022-11-15T10:25:08.844Z,11.30
2022-11-15T10:26:47.749Z,11.40
2022-11-15T10:28:23.625Z,11.50
2022-11-15T10:29:56.352Z,11.50
2022-11-15T10:31:30.085Z,11.60
2022-11-15T10:33:12.280Z,11.60
2022-11-15T10:34:45.122Z,11.70
2022-11-15T10:36:19.465Z,11.80
2022-11-15T10:37:52.396Z,11.90
2022-11-15T10:39:26.595Z,11.90
2022-11-15T10:41:08.643Z,12.00
2022-11-15T10:42:41.627Z,12.00
2022-11-15T10:44:20.032Z,12.10
2022-11-15T10:45:53.832Z,12.20
2022-11-15T10:47:28.184Z,12.30
2022-11-15T10:49:13.984Z,12.30
2022-11-15T10:50:47.677Z,12.40
2022-11-15T10:52:23.101Z,12.50
2022-11-15T10:53:56.805Z,12.50
2022-11-15T10:55:32.067Z,12.60
2022-11-15T10:57:08.179Z,12.60
2022-11-15T10:58:41.839Z,12.70
2022-11-15T11:00:28.350Z,12.70
2022-11-15T11:02:01.603Z,12.80
2022-11-15T11:03:36.581Z,12.80
2022-11-15T11:05:30.209Z,12.90
2022-11-15T11:07:02.931Z,13.00
2022-11-15T11:08:35.697Z,13.00
2022-11-15T11:10:49.700Z,13.10
2022-11-15T11:12:28.584Z,13.20
2022-11-15T11:14:13.429Z,13.30
2022-11-15T11:15:47.940Z,13.60
2022-11-15T11:17:26.491Z,13.40
2022-11-15T11:19:04.242Z,13.40
2022-11-15T11:20:39.277Z,13.50
2022-11-15T11:22:17.273Z,13.50
2022-11-15T11:23:54.045Z,13.60
2022-11-15T11:25:30.975Z,13.60
2022-11-15T11:27:13.591Z,13.70
2022-11-15T11:28:53.665Z,13.80
2022-11-15T11:30:32.667Z,13.80
2022-11-15T11:32:10.776Z,13.80
2022-11-15T11:33:45.891Z,13.80
2022-11-15T11:35:21.739Z,13.90
2022-11-15T11:37:00.708Z,13.90
2022-11-15T11:38:38.657Z,13.90
2022-11-15T11:40:17.970Z,14.00
2022-11-15T11:41:55.195Z,14.00
2022-11-15T11:43:32.101Z,14.10
2022-11-15T11:45:12.763Z,14.10
2022-11-15T11:46:56.071Z,14.10
2022-11-15T11:48:37.489Z,14.10
2022-11-15T11:50:14.722Z,14.20
2022-11-15T11:51:49.695Z,14.10
2022-11-15T11:53:27.330Z,14.30
2022-11-15T11:55:03.511Z,14.30
2022-11-15T11:56:38.360Z,14.30
2022-11-15T11:58:15.292Z,14.30
2022-11-15T11:59:51.625Z,14.30
2022-11-15T12:01:27.359Z,14.30
2022-11-15T12:03:05.828Z,14.20
2022-11-15T12:04:40.654Z,14.40
2022-11-15T12:06:20.477Z,14.40
2022-11-15T12:07:55.386Z,14.40
2022-11-15T12:09:32.229Z,14.50
2022-11-15T12:11:09.021Z,14.50
2022-11-15T12:12:45.351Z,14.50
2022-11-15T12:14:22.915Z,14.60
2022-11-15T12:15:59.387Z,14.60
2022-11-15T12:17:34.042Z,14.60
2022-11-15T12:19:06.832Z,14.60
2022-11-15T12:20:41.626Z,14.70
2022-11-15T12:22:16.188Z,14.70
2022-11-15T12:23:51.356Z,14.70
2022-11-15T12:25:25.657Z,14.70
2022-11-15T12:27:02.034Z,14.70
2022-11-15T12:28:52.888Z,14.60
2022-11-15T12:30:42.013Z,14.60
2022-11-15T12:32:19.570Z,14.60
2022-11-15T12:33:57.320Z,14.60
2022-11-15T12:35:32.552Z,14.60
2022-11-15T12:37:25.343Z,14.70
2022-11-15T12:38:59.071Z,14.70
2022-11-15T12:40:33.100Z,14.80
2022-11-15T12:42:20.710Z,14.80
2022-11-15T12:43:53.475Z,14.80
2022-11-15T12:45:27.587Z,14.90
2022-11-15T12:47:02.090Z,14.90
2022-11-15T12:48:48.799Z,14.90
2022-11-15T12:50:36.398Z,15.00
2022-11-15T12:52:10.802Z,15.00
2022-11-15T12:53:43.634Z,15.10
2022-11-15T12:55:33.004Z,15.10
2022-11-15T12:57:24.119Z,15.20
2022-11-15T12:58:58.433Z,15.20
2022-11-15T13:00:40.724Z,15.30
2022-11-15T13:02:20.188Z,15.20
2022-11-15T13:04:10.806Z,15.30
2022-11-15T13:05:55.296Z,15.30
2022-11-15T13:07:52.136Z,15.30
2022-11-15T13:09:43.759Z,15.30
2022-11-15T13:11:34.979Z,15.40
2022-11-15T13:13:10.766Z,15.40
2022-11-15T13:14:53.169Z,15.40
2022-11-15T13:16:26.705Z,15.40
2022-11-15T13:18:00.879Z,15.50
2022-11-15T13:19:33.740Z,15.40
2022-11-15T13:21:32.837Z,15.40
2022-11-15T13:23:10.883Z,15.40
2022-11-15T13:24:43.681Z,15.40
2022-11-15T13:26:17.998Z,15.40
2022-11-15T13:27:52.084Z,15.30
2022-11-15T13:29:27.206Z,15.20
2022-11-15T13:31:00.935Z,15.20
2022-11-15T13:32:33.603Z,15.10
2022-11-15T13:34:44.273Z,15.10
2022-11-15T13:36:15.363Z,15.10
2022-11-15T13:37:48.096Z,15.00
2022-11-15T13:39:30.912Z,15.00
2022-11-15T13:41:13.710Z,14.90
2022-11-15T13:42:46.460Z,14.90
2022-11-15T13:44:22.013Z,14.80
2022-11-15T13:46:07.039Z,14.80
2022-11-15T13:47:39.956Z,14.70
2022-11-15T13:49:13.132Z,14.70
2022-11-15T13:50:45.917Z,14.60
2022-11-15T13:52:18.903Z,14.60
2022-11-15T13:53:54.860Z,14.60
2022-11-15T13:55:27.891Z,14.60
2022-11-15T13:57:04.122Z,14.50
2022-11-15T13:58:39.359Z,14.50
2022-11-15T14:00:26.926Z,14.50
2022-11-15T14:02:03.238Z,14.50
2022-11-15T14:03:36.987Z,14.50
2022-11-15T14:05:17.351Z,14.50
2022-11-15T14:06:51.221Z,14.50
2022-11-15T14:08:26.698Z,14.50
2022-11-15T14:09:59.472Z,14.40
2022-11-15T14:11:32.388Z,14.30
2022-11-15T14:13:05.861Z,14.30
2022-11-15T14:14:46.403Z,14.20
2022-11-15T14:16:20.392Z,14.20
2022-11-15T14:17:54.607Z,14.10
2022-11-15T14:19:40.457Z,14.00
2022-11-15T14:21:13.514Z,13.90
2022-11-15T14:22:52.840Z,13.80
2022-11-15T14:24:32.521Z,13.80
2022-11-15T14:26:11.255Z,13.60
2022-11-15T14:27:45.328Z,13.60
2022-11-15T14:29:24.719Z,13.50
2022-11-15T14:30:58.918Z,13.40
2022-11-15T14:32:43.723Z,13.30
2022-11-15T14:34:17.869Z,13.30
2022-11-15T14:35:50.852Z,13.20
2022-11-15T14:37:24.631Z,13.10
2022-11-15T14:38:57.407Z,13.10
2022-11-15T14:40:30.617Z,13.00
2022-11-15T14:42:03.318Z,12.90
2022-11-15T14:43:36.061Z,12.80
2022-11-15T14:45:11.818Z,12.80
2022-11-15T14:46:44.539Z,12.70
2022-11-15T14:48:17.241Z,12.60
2022-11-15T14:49:51.388Z,12.60
2022-11-15T14:51:24.320Z,12.60
2022-11-15T14:52:57.069Z,12.50
2022-11-15T14:54:29.920Z,12.50
2022-11-15T14:56:02.676Z,12.40
2022-11-15T14:57:35.482Z,12.40
2022-11-15T14:59:08.256Z,12.30
2022-11-15T15:00:41.942Z,12.30
2022-11-15T15:02:18.993Z,12.20
2022-11-15T15:03:52.978Z,12.20
2022-11-15T15:05:28.088Z,12.10
2022-11-15T15:07:01.753Z,12.00
2022-11-15T15:08:35.054Z,12.00
2022-11-15T15:12:05.912Z,11.90
2022-11-15T15:13:39.113Z,11.70
2022-11-15T15:15:15.204Z,11.60
2022-11-15T15:16:48.192Z,11.60
2022-11-15T15:18:21.525Z,11.50
2022-11-15T15:19:54.318Z,11.40
2022-11-15T15:21:33.820Z,11.40
2022-11-15T15:23:16.458Z,11.30
2022-11-15T15:24:49.256Z,11.20
2022-11-15T15:26:22.012Z,11.20
2022-11-15T15:27:54.964Z,11.10
2022-11-15T15:29:27.821Z,11.00
2022-11-15T15:31:00.586Z,10.90
2022-11-15T15:32:33.487Z,10.80
2022-11-15T15:34:06.201Z,10.80
2022-11-15T15:35:38.863Z,10.70
2022-11-15T15:37:20.799Z,10.70
2022-11-15T15:38:53.526Z,10.60
2022-11-15T15:40:27.246Z,10.60
2022-11-15T15:42:00.036Z,10.60
2022-11-15T15:43:32.800Z,10.60
2022-11-15T15:45:06.205Z,10.60
2022-11-15T15:46:38.998Z,10.60
2022-11-15T15:48:13.197Z,10.70
2022-11-15T15:49:46.286Z,10.70
2022-11-15T15:51:20.649Z,10.70
2022-11-15T15:52:56.581Z,10.70
2022-11-15T15:54:29.333Z,10.70
2022-11-15T15:56:02.115Z,10.70
2022-11-15T15:57:34.996Z,10.80
2022-11-15T15:59:07.693Z,10.80
2022-11-15T16:00:40.537Z,10.80
2022-11-15T16:02:13.672Z,10.80
2022-11-15T16:03:46.467Z,10.90
2022-11-15T16:05:19.632Z,10.90
2022-11-15T16:06:53.778Z,10.90
2022-11-15T16:08:38.223Z,10.90
2022-11-15T16:10:25.929Z,10.90
2022-11-15T16:11:58.765Z,10.90
2022-11-15T16:13:31.513Z,11.00
2022-11-15T16:15:04.809Z,11.00
2022-11-15T16:16:37.861Z,11.00
2022-11-15T16:18:16.337Z,11.00
2022-11-15T16:19:49.124Z,11.00
2022-11-15T16:21:22.035Z,11.00
2022-11-15T16:22:54.772Z,11.00
2022-11-15T16:24:28.910Z,11.00
2022-11-15T16:26:03.879Z,11.00
2022-11-15T16:27:38.289Z,11.00
2022-11-15T16:29:11.933Z,11.00
2022-11-15T16:30:44.855Z,11.00
2022-11-15T16:32:17.999Z,11.00
2022-11-15T16:33:50.891Z,11.00
2022-11-15T16:35:23.660Z,11.00
2022-11-15T16:36:56.397Z,11.00
2022-11-15T16:38:29.289Z,11.00
2022-11-15T16:40:03.674Z,11.00
2022-11-15T16:41:36.465Z,10.90
2022-11-15T16:43:09.520Z,10.90
2022-11-15T16:44:42.546Z,10.90
2022-11-15T16:46:17.818Z,10.90
2022-11-15T16:47:50.749Z,10.90
2022-11-15T16:49:24.496Z,10.90
2022-11-15T16:50:58.333Z,10.80
2022-11-15T16:52:31.252Z,10.90
2022-11-15T16:54:04.292Z,10.90
2022-11-15T16:55:38.664Z,10.90
2022-11-15T16:57:12.255Z,10.90
2022-11-15T16:58:45.530Z,11.00
2022-11-15T17:00:19.100Z,11.00
2022-11-15T17:01:52.042Z,11.00
2022-11-15T17:03:25.698Z,11.00
2022-11-15T17:04:58.416Z,11.00
2022-11-15T17:06:31.328Z,11.00
2022-11-15T17:08:04.093Z,11.00
2022-11-15T17:09:36.815Z,11.00
2022-11-15T17:11:11.078Z,11.00
2022-11-15T17:12:43.996Z,10.90
2022-11-15T17:14:16.985Z,10.90
2022-11-15T17:15:49.854Z,10.90
2022-11-15T17:17:22.637Z,10.90
2022-11-15T17:18:55.612Z,11.00
2022-11-15T17:20:28.550Z,10.90
2022-11-15T17:22:01.370Z,10.90
2022-11-15T17:23:34.938Z,10.90
2022-11-15T17:25:07.878Z,10.90
2022-11-15T17:26:42.857Z,10.90
2022-11-15T17:28:15.709Z,10.90
2022-11-15T17:29:48.475Z,10.90
2022-11-15T17:31:21.185Z,10.90
2022-11-15T17:32:54.085Z,10.90
2022-11-15T17:34:27.041Z,10.80
2022-11-15T17:36:00.599Z,10.80
2022-11-15T17:37:33.513Z,10.90
2022-11-15T17:39:06.559Z,10.80
2022-11-15T17:40:39.414Z,10.80
2022-11-15T17:42:13.580Z,10.80
2022-11-15T17:43:46.919Z,10.70
2022-11-15T17:45:19.808Z,10.70
2022-11-15T17:46:52.594Z,10.70
2022-11-15T17:48:25.483Z,10.70
2022-11-15T17:49:58.275Z,10.70
2022-11-15T17:51:31.264Z,10.70
2022-11-15T17:53:04.382Z,10.70
2022-11-15T17:54:37.262Z,10.70
2022-11-15T17:56:11.456Z,10.70
2022-11-15T17:57:46.261Z,10.70
2022-11-15T17:59:21.643Z,10.70
2022-11-15T18:00:54.700Z,10.70
2022-11-15T18:02:27.974Z,10.80
2022-11-15T18:04:02.111Z,10.80
2022-11-15T18:05:35.035Z,10.80
2022-11-15T18:07:08.113Z,10.80
2022-11-15T18:08:41.475Z,10.70
2022-11-15T18:10:15.924Z,10.70
2022-11-15T18:11:51.490Z,10.70
2022-11-15T18:13:25.652Z,10.60
2022-11-15T18:15:00.098Z,10.60
2022-11-15T18:16:35.927Z,10.60
2022-11-15T18:18:08.677Z,10.50
2022-11-15T18:19:41.425Z,10.50
2022-11-15T18:21:15.151Z,10.50
2022-11-15T18:22:48.178Z,10.40
2022-11-15T18:24:20.959Z,10.50
2022-11-15T18:25:53.754Z,10.50
2022-11-15T18:27:26.562Z,10.40
2022-11-15T18:29:05.506Z,10.40
2022-11-15T18:30:39.529Z,10.40
2022-11-15T18:32:15.055Z,10.30
2022-11-15T18:33:48.358Z,10.30
2022-11-15T18:35:21.111Z,10.30
2022-11-15T18:36:54.073Z,10.30
2022-11-15T18:38:30.620Z,10.30
2022-11-15T18:40:03.826Z,10.30
2022-11-15T18:41:36.657Z,10.30
2022-11-15T18:43:09.536Z,10.30
2022-11-15T18:44:43.629Z,10.30
2022-11-15T18:46:17.485Z,10.30
2022-11-15T18:47:50.217Z,10.30
2022-11-15T18:49:23.045Z,10.30
2022-11-15T18:51:04.891Z,10.30
2022-11-15T18:52:38.561Z,10.20
2022-11-15T18:54:12.313Z,10.20
2022-11-15T18:55:45.196Z,10.20
2022-11-15T18:57:18.262Z,10.20
2022-11-15T18:58:52.110Z,10.20
2022-11-15T19:00:26.332Z,10.20
2022-11-15T19:01:59.070Z,10.20
2022-11-15T19:03:35.628Z,10.10
2022-11-15T19:05:09.202Z,10.10
2022-11-15T19:06:42.928Z,10.10
2022-11-15T19:08:15.751Z,10.10
2022-11-15T19:09:48.523Z,10.10
2022-11-15T19:11:23.951Z,10.10
2022-11-15T19:12:56.787Z,10.10
2022-11-15T19:14:29.671Z,10.10
2022-11-15T19:16:04.511Z,10.10
2022-11-15T19:17:37.325Z,10.10
2022-11-15T19:19:12.759Z,10.00
2022-11-15T19:20:45.611Z,10.10
2022-11-15T19:22:18.665Z,10.10
2022-11-15T19:23:52.925Z,10.00
2022-11-15T19:25:28.751Z,10.00
2022-11-15T19:27:01.645Z,9.90
2022-11-15T19:28:34.596Z,9.90
2022-11-15T19:30:08.139Z,9.80
2022-11-15T19:31:42.674Z,9.80
2022-11-15T19:33:15.481Z,9.70
2022-11-15T19:34:48.291Z,9.70
2022-11-15T19:36:22.133Z,9.70
2022-11-15T19:37:55.307Z,9.70
2022-11-15T19:39:28.005Z,9.70
2022-11-15T19:41:01.239Z,9.70
2022-11-15T19:42:34.079Z,9.70
2022-11-15T19:44:06.932Z,9.70
2022-11-15T19:45:39.708Z,9.70
2022-11-15T19:47:13.954Z,9.70
2022-11-15T19:48:46.868Z,9.70
2022-11-15T19:50:19.956Z,9.70
2022-11-15T19:51:52.737Z,9.70
2022-11-15T19:53:28.152Z,9.70
2022-11-15T19:55:04.776Z,9.70
2022-11-15T19:56:37.720Z,9.70
2022-11-15T19:58:10.561Z,9.70
2022-11-15T19:59:43.324Z,9.70
2022-11-15T20:01:18.116Z,9.60
2022-11-15T20:02:52.325Z,9.60
2022-11-15T20:04:25.174Z,9.50
2022-11-15T20:06:01.617Z,9.50
2022-11-15T20:07:34.421Z,9.40
2022-11-15T20:09:07.522Z,9.40
2022-11-15T20:10:40.308Z,9.40
2022-11-15T20:12:13.294Z,9.40
2022-11-15T20:13:46.096Z,9.40
2022-11-15T20:15:18.914Z,9.30
2022-11-15T20:16:54.403Z,9.50
2022-11-15T20:18:30.253Z,9.30
2022-11-15T20:20:03.899Z,9.30
2022-11-15T20:21:37.184Z,9.30
2022-11-15T20:23:10.274Z,9.30
2022-11-15T20:24:43.271Z,9.30
2022-11-15T20:26:16.288Z,9.30
2022-11-15T20:27:49.364Z,9.30
2022-11-15T20:29:22.232Z,9.30
2022-11-15T20:30:56.030Z,9.30
2022-11-15T20:32:29.153Z,9.30
2022-11-15T20:34:03.333Z,9.30
2022-11-15T20:35:36.278Z,9.20
2022-11-15T20:37:09.195Z,9.30
2022-11-15T20:38:41.939Z,9.30
2022-11-15T20:40:16.344Z,9.30
2022-11-15T20:41:49.249Z,9.30
2022-11-15T20:43:22.071Z,9.30
2022-11-15T20:44:54.799Z,9.30
2022-11-15T20:46:27.645Z,9.30
2022-11-15T20:48:00.428Z,9.40
2022-11-15T20:49:34.764Z,9.40
2022-11-15T20:51:08.363Z,9.40